メインページ
METAR-TAF:

METAR-TAF

空港 :

アイラ島, スコットランド

緯度: 55-40-55N, 経度: 006-15-24W, 海抜: 16m

現時点の気象観測

当レポートは30分前の22:50(UTC)に作成
西の風 24kt
気温 7°C
湿度 93%
気圧 985 hPa
視程: 5000m

METAR: EGPI 152250Z AUTO 28024KT 5000 RA FEW007/// SCT013/// BKN018/// 07/06 Q0985

時間: 23:20 (23:20 UTC)

予報

当レポートは9時間21分前の13:59(UTC)に作成
予報は15日の 15時(UTC)から 15日の 18時(UTC)まで有効
南東の風 30kt
視程10km以上
高度1200ftの雲はほとんどない
高度2000ftの千切れ雲あり
15日の 15時(UTC)から 15日の 18時(UTC)まで一時的に
南東の風 34kt、最大44ktの突風を伴う
視程: 6000m
高度1000ftの千切れ雲あり
確率 30% :
15日の 15時(UTC)から 15日の 18時(UTC)まで一時的に
視程: 3000m
高度600ftの千切れ雲あり
大雨

TAF: EGPI 151359Z 1515/1518 13030KT 9999 FEW012 BKN020 TEMPO 1515/1518 14034G44KT 6000 RA BKN010 PROB30 TEMPO 1515/1518 3000 +RA BKN006

4,000以上の空港の気象観測と天気予報(METAR報とTAF報)

利用可能な観測所は地図上に黄色い丸と赤い丸で示す。

丸の上にカーソルを重ねると観測所名を参照できる。

次にクリックすると気象観測と天気予報を参照できる。

マップの切り替え:黒色「×」印の緑ボタンをクリックして拡大、「-」印の緑ボタンをクリックして縮小、緑色の三角印をクリックして隣りの地図に切り替え


METAR-TAF: